sensor_id;sensor_type;location;lat;lon;timestamp;temperature;humidity
38333;DHT22;25748;46.670;14.272;2023-02-01T00:01:12;-4.70;55.70
38333;DHT22;25748;46.670;14.272;2023-02-01T00:03:38;-4.70;55.80
38333;DHT22;25748;46.670;14.272;2023-02-01T00:06:04;-4.70;55.80
38333;DHT22;25748;46.670;14.272;2023-02-01T00:08:30;-4.70;55.70
38333;DHT22;25748;46.670;14.272;2023-02-01T00:11:07;-4.80;55.60
38333;DHT22;25748;46.670;14.272;2023-02-01T00:13:34;-4.80;55.60
38333;DHT22;25748;46.670;14.272;2023-02-01T00:16:21;-4.90;55.50
38333;DHT22;25748;46.670;14.272;2023-02-01T00:18:49;-4.90;55.60
38333;DHT22;25748;46.670;14.272;2023-02-01T00:21:16;-5.00;55.80
38333;DHT22;25748;46.670;14.272;2023-02-01T00:23:42;-5.00;55.70
38333;DHT22;25748;46.670;14.272;2023-02-01T00:26:14;-5.00;55.80
38333;DHT22;25748;46.670;14.272;2023-02-01T00:28:40;-5.00;56.00
38333;DHT22;25748;46.670;14.272;2023-02-01T00:31:06;-5.00;56.00
38333;DHT22;25748;46.670;14.272;2023-02-01T00:33:33;-5.10;56.10
38333;DHT22;25748;46.670;14.272;2023-02-01T00:36:04;-5.10;56.10
38333;DHT22;25748;46.670;14.272;2023-02-01T00:38:31;-5.00;56.10
38333;DHT22;25748;46.670;14.272;2023-02-01T00:43:33;-5.10;56.10
38333;DHT22;25748;46.670;14.272;2023-02-01T00:45:59;-5.20;56.00
38333;DHT22;25748;46.670;14.272;2023-02-01T00:48:26;-5.20;56.10
38333;DHT22;25748;46.670;14.272;2023-02-01T00:50:52;-5.20;56.10
38333;DHT22;25748;46.670;14.272;2023-02-01T00:53:18;-5.20;56.10
38333;DHT22;25748;46.670;14.272;2023-02-01T00:55:47;-5.20;56.00
38333;DHT22;25748;46.670;14.272;2023-02-01T00:58:14;-5.30;56.00
38333;DHT22;25748;46.670;14.272;2023-02-01T01:00:39;-5.30;56.20
38333;DHT22;25748;46.670;14.272;2023-02-01T01:03:05;-5.30;56.40
38333;DHT22;25748;46.670;14.272;2023-02-01T01:05:47;-5.30;56.40
38333;DHT22;25748;46.670;14.272;2023-02-01T01:08:14;-5.40;56.30
38333;DHT22;25748;46.670;14.272;2023-02-01T01:10:41;-5.40;56.30
38333;DHT22;25748;46.670;14.272;2023-02-01T01:13:07;-5.40;56.30
38333;DHT22;25748;46.670;14.272;2023-02-01T01:15:39;-5.40;56.20
38333;DHT22;25748;46.670;14.272;2023-02-01T01:18:05;-5.40;56.20
38333;DHT22;25748;46.670;14.272;2023-02-01T01:20:33;-5.40;56.20
38333;DHT22;25748;46.670;14.272;2023-02-01T01:22:59;-5.50;56.20
38333;DHT22;25748;46.670;14.272;2023-02-01T01:25:25;-5.50;56.20
38333;DHT22;25748;46.670;14.272;2023-02-01T01:27:51;-5.50;56.20
38333;DHT22;25748;46.670;14.272;2023-02-01T01:30:16;-5.50;56.30
38333;DHT22;25748;46.670;14.272;2023-02-01T01:32:43;-5.50;56.30
38333;DHT22;25748;46.670;14.272;2023-02-01T01:35:09;-5.50;56.50
38333;DHT22;25748;46.670;14.272;2023-02-01T01:37:35;-5.50;56.30
38333;DHT22;25748;46.670;14.272;2023-02-01T01:40:05;-5.50;56.30
38333;DHT22;25748;46.670;14.272;2023-02-01T01:42:36;-5.60;56.40
38333;DHT22;25748;46.670;14.272;2023-02-01T01:45:05;-5.60;56.30
38333;DHT22;25748;46.670;14.272;2023-02-01T01:47:44;-5.60;56.40
38333;DHT22;25748;46.670;14.272;2023-02-01T01:50:16;-5.70;56.30
38333;DHT22;25748;46.670;14.272;2023-02-01T01:52:44;-5.70;56.30
38333;DHT22;25748;46.670;14.272;2023-02-01T01:55:12;-5.70;56.20
38333;DHT22;25748;46.670;14.272;2023-02-01T01:57:42;-5.80;56.40
38333;DHT22;25748;46.670;14.272;2023-02-01T02:00:13;-5.80;56.50
38333;DHT22;25748;46.670;14.272;2023-02-01T02:02:41;-5.80;56.60
38333;DHT22;25748;46.670;14.272;2023-02-01T02:05:09;-5.80;56.60
38333;DHT22;25748;46.670;14.272;2023-02-01T02:07:41;-5.90;56.70
38333;DHT22;25748;46.670;14.272;2023-02-01T02:10:10;-5.90;57.40
38333;DHT22;25748;46.670;14.272;2023-02-01T02:12:41;-5.80;57.30
38333;DHT22;25748;46.670;14.272;2023-02-01T02:15:09;-5.90;57.20
38333;DHT22;25748;46.670;14.272;2023-02-01T02:23:36;-5.90;57.00
38333;DHT22;25748;46.670;14.272;2023-02-01T02:26:17;-5.90;57.20
38333;DHT22;25748;46.670;14.272;2023-02-01T02:34:38;-5.90;57.20
38333;DHT22;25748;46.670;14.272;2023-02-01T02:40:15;-6.00;56.90
38333;DHT22;25748;46.670;14.272;2023-02-01T02:45:52;-6.10;56.90
38333;DHT22;25748;46.670;14.272;2023-02-01T02:48:54;-6.10;57.00
38333;DHT22;25748;46.670;14.272;2023-02-01T02:51:32;-6.10;57.50
38333;DHT22;25748;46.670;14.272;2023-02-01T02:54:28;-6.00;57.10
38333;DHT22;25748;46.670;14.272;2023-02-01T03:00:07;-6.10;56.50
38333;DHT22;25748;46.670;14.272;2023-02-01T03:02:53;-6.20;56.50
38333;DHT22;25748;46.670;14.272;2023-02-01T03:05:42;-6.20;56.60
38333;DHT22;25748;46.670;14.272;2023-02-01T03:08:16;-6.30;56.30
38333;DHT22;25748;46.670;14.272;2023-02-01T03:10:51;-6.30;56.40
38333;DHT22;25748;46.670;14.272;2023-02-01T03:16:45;-6.30;56.60
38333;DHT22;25748;46.670;14.272;2023-02-01T03:19:11;-6.30;56.70
38333;DHT22;25748;46.670;14.272;2023-02-01T03:21:45;-6.40;56.70
38333;DHT22;25748;46.670;14.272;2023-02-01T03:24:24;-6.40;56.70
38333;DHT22;25748;46.670;14.272;2023-02-01T03:27:13;-6.40;56.80
38333;DHT22;25748;46.670;14.272;2023-02-01T03:29:42;-6.40;56.70
38333;DHT22;25748;46.670;14.272;2023-02-01T03:32:10;-6.50;56.60
38333;DHT22;25748;46.670;14.272;2023-02-01T03:34:36;-6.50;56.60
38333;DHT22;25748;46.670;14.272;2023-02-01T03:37:05;-6.50;56.70
38333;DHT22;25748;46.670;14.272;2023-02-01T03:39:46;-6.50;56.80
38333;DHT22;25748;46.670;14.272;2023-02-01T03:42:18;-6.50;56.90
38333;DHT22;25748;46.670;14.272;2023-02-01T03:45:04;-6.50;57.10
38333;DHT22;25748;46.670;14.272;2023-02-01T03:47:35;-6.50;57.10
38333;DHT22;25748;46.670;14.272;2023-02-01T03:50:10;-6.50;57.00
38333;DHT22;25748;46.670;14.272;2023-02-01T03:52:47;-6.50;57.20
38333;DHT22;25748;46.670;14.272;2023-02-01T03:55:15;-6.50;57.20
38333;DHT22;25748;46.670;14.272;2023-02-01T03:57:46;-6.50;57.20
38333;DHT22;25748;46.670;14.272;2023-02-01T04:00:18;-6.60;57.00
38333;DHT22;25748;46.670;14.272;2023-02-01T04:02:45;-6.50;57.10
38333;DHT22;25748;46.670;14.272;2023-02-01T04:05:10;-6.60;57.00
38333;DHT22;25748;46.670;14.272;2023-02-01T04:07:36;-6.60;56.90
38333;DHT22;25748;46.670;14.272;2023-02-01T04:10:03;-6.60;56.80
38333;DHT22;25748;46.670;14.272;2023-02-01T04:12:29;-6.70;56.70
38333;DHT22;25748;46.670;14.272;2023-02-01T04:14:54;-6.70;56.70
38333;DHT22;25748;46.670;14.272;2023-02-01T04:17:20;-6.70;56.60
38333;DHT22;25748;46.670;14.272;2023-02-01T04:19:46;-6.80;56.60
38333;DHT22;25748;46.670;14.272;2023-02-01T04:22:11;-6.80;56.50
38333;DHT22;25748;46.670;14.272;2023-02-01T04:24:38;-6.80;56.40
38333;DHT22;25748;46.670;14.272;2023-02-01T04:27:03;-6.90;56.20
38333;DHT22;25748;46.670;14.272;2023-02-01T04:29:29;-6.90;56.40
38333;DHT22;25748;46.670;14.272;2023-02-01T04:31:55;-7.00;56.70
38333;DHT22;25748;46.670;14.272;2023-02-01T04:34:21;-7.00;56.70
38333;DHT22;25748;46.670;14.272;2023-02-01T04:36:48;-7.00;56.70
38333;DHT22;25748;46.670;14.272;2023-02-01T04:39:14;-6.90;56.70
38333;DHT22;25748;46.670;14.272;2023-02-01T04:41:39;-7.00;56.70
38333;DHT22;25748;46.670;14.272;2023-02-01T04:44:05;-7.00;56.70
38333;DHT22;25748;46.670;14.272;2023-02-01T04:46:31;-6.90;57.00
38333;DHT22;25748;46.670;14.272;2023-02-01T04:48:56;-7.00;56.80
38333;DHT22;25748;46.670;14.272;2023-02-01T04:51:22;-7.00;56.90
38333;DHT22;25748;46.670;14.272;2023-02-01T04:53:48;-7.00;56.90
38333;DHT22;25748;46.670;14.272;2023-02-01T04:56:14;-7.00;57.00
38333;DHT22;25748;46.670;14.272;2023-02-01T04:58:39;-7.00;57.20
38333;DHT22;25748;46.670;14.272;2023-02-01T05:01:06;-7.00;57.30
38333;DHT22;25748;46.670;14.272;2023-02-01T05:03:32;-7.00;57.30
38333;DHT22;25748;46.670;14.272;2023-02-01T05:05:59;-6.90;57.30
38333;DHT22;25748;46.670;14.272;2023-02-01T05:08:25;-7.00;57.20
38333;DHT22;25748;46.670;14.272;2023-02-01T05:10:52;-7.00;57.20
38333;DHT22;25748;46.670;14.272;2023-02-01T05:13:18;-7.00;57.10
38333;DHT22;25748;46.670;14.272;2023-02-01T05:16:02;-7.00;57.20
38333;DHT22;25748;46.670;14.272;2023-02-01T05:18:28;-7.10;56.90
38333;DHT22;25748;46.670;14.272;2023-02-01T05:20:53;-7.10;56.90
38333;DHT22;25748;46.670;14.272;2023-02-01T05:23:19;-7.20;56.60
38333;DHT22;25748;46.670;14.272;2023-02-01T05:25:45;-7.20;56.50
38333;DHT22;25748;46.670;14.272;2023-02-01T05:28:11;-7.20;56.50
38333;DHT22;25748;46.670;14.272;2023-02-01T05:30:36;-7.30;56.40
38333;DHT22;25748;46.670;14.272;2023-02-01T05:33:03;-7.30;56.50
38333;DHT22;25748;46.670;14.272;2023-02-01T05:35:29;-7.30;56.50
38333;DHT22;25748;46.670;14.272;2023-02-01T05:37:55;-7.30;56.50
38333;DHT22;25748;46.670;14.272;2023-02-01T05:40:20;-7.30;56.60
38333;DHT22;25748;46.670;14.272;2023-02-01T05:42:46;-7.40;56.70
38333;DHT22;25748;46.670;14.272;2023-02-01T05:45:12;-7.40;56.80
38333;DHT22;25748;46.670;14.272;2023-02-01T05:47:38;-7.40;56.80
38333;DHT22;25748;46.670;14.272;2023-02-01T05:50:04;-7.40;56.70
38333;DHT22;25748;46.670;14.272;2023-02-01T05:52:30;-7.40;56.60
38333;DHT22;25748;46.670;14.272;2023-02-01T05:54:56;-7.40;56.50
38333;DHT22;25748;46.670;14.272;2023-02-01T05:57:22;-7.50;56.40
38333;DHT22;25748;46.670;14.272;2023-02-01T05:59:47;-7.50;56.50
38333;DHT22;25748;46.670;14.272;2023-02-01T06:02:14;-7.50;56.60
38333;DHT22;25748;46.670;14.272;2023-02-01T06:04:40;-7.50;56.70
38333;DHT22;25748;46.670;14.272;2023-02-01T06:07:06;-7.50;56.70
38333;DHT22;25748;46.670;14.272;2023-02-01T06:09:36;-7.50;56.70
38333;DHT22;25748;46.670;14.272;2023-02-01T06:12:03;-7.60;56.70
38333;DHT22;25748;46.670;14.272;2023-02-01T06:14:29;-7.60;56.60
38333;DHT22;25748;46.670;14.272;2023-02-01T06:16:55;-7.60;56.70
38333;DHT22;25748;46.670;14.272;2023-02-01T06:19:21;-7.60;56.70
38333;DHT22;25748;46.670;14.272;2023-02-01T06:21:48;-7.60;56.60
38333;DHT22;25748;46.670;14.272;2023-02-01T06:24:14;-7.60;56.60
38333;DHT22;25748;46.670;14.272;2023-02-01T06:26:40;-7.60;56.60
38333;DHT22;25748;46.670;14.272;2023-02-01T06:29:07;-7.60;56.50
38333;DHT22;25748;46.670;14.272;2023-02-01T06:31:33;-7.60;56.60
38333;DHT22;25748;46.670;14.272;2023-02-01T06:33:59;-7.70;56.40
38333;DHT22;25748;46.670;14.272;2023-02-01T06:36:24;-7.70;56.60
38333;DHT22;25748;46.670;14.272;2023-02-01T06:38:50;-7.70;56.40
38333;DHT22;25748;46.670;14.272;2023-02-01T06:41:16;-7.70;56.50
38333;DHT22;25748;46.670;14.272;2023-02-01T06:43:42;-7.80;56.40
38333;DHT22;25748;46.670;14.272;2023-02-01T06:46:11;-7.80;56.40
38333;DHT22;25748;46.670;14.272;2023-02-01T06:48:37;-7.80;56.60
38333;DHT22;25748;46.670;14.272;2023-02-01T06:51:03;-7.80;56.60
38333;DHT22;25748;46.670;14.272;2023-02-01T06:53:30;-7.80;56.70
38333;DHT22;25748;46.670;14.272;2023-02-01T06:56:00;-7.80;56.80
38333;DHT22;25748;46.670;14.272;2023-02-01T06:58:33;-7.80;56.80
38333;DHT22;25748;46.670;14.272;2023-02-01T07:01:04;-7.80;56.80
38333;DHT22;25748;46.670;14.272;2023-02-01T07:03:30;-7.70;56.90
38333;DHT22;25748;46.670;14.272;2023-02-01T07:05:57;-7.70;57.00
38333;DHT22;25748;46.670;14.272;2023-02-01T07:08:24;-7.70;57.00
38333;DHT22;25748;46.670;14.272;2023-02-01T07:10:50;-7.60;57.00
38333;DHT22;25748;46.670;14.272;2023-02-01T07:13:16;-7.70;56.90
38333;DHT22;25748;46.670;14.272;2023-02-01T07:15:41;-7.60;57.00
38333;DHT22;25748;46.670;14.272;2023-02-01T07:18:07;-7.60;57.00
38333;DHT22;25748;46.670;14.272;2023-02-01T07:20:33;-7.60;57.00
38333;DHT22;25748;46.670;14.272;2023-02-01T07:22:58;-7.50;57.10
38333;DHT22;25748;46.670;14.272;2023-02-01T07:25:24;-7.40;57.20
38333;DHT22;25748;46.670;14.272;2023-02-01T07:27:50;-7.40;57.20
38333;DHT22;25748;46.670;14.272;2023-02-01T07:30:16;-7.30;57.30
38333;DHT22;25748;46.670;14.272;2023-02-01T07:32:41;-7.30;57.30
38333;DHT22;25748;46.670;14.272;2023-02-01T07:35:07;-7.10;57.50
38333;DHT22;25748;46.670;14.272;2023-02-01T07:37:33;-7.00;57.70
38333;DHT22;25748;46.670;14.272;2023-02-01T07:39:58;-6.90;58.10
38333;DHT22;25748;46.670;14.272;2023-02-01T07:42:24;-6.80;57.90
38333;DHT22;25748;46.670;14.272;2023-02-01T07:44:50;-6.70;58.00
38333;DHT22;25748;46.670;14.272;2023-02-01T07:47:15;-6.50;58.10
38333;DHT22;25748;46.670;14.272;2023-02-01T07:49:41;-6.40;58.10
38333;DHT22;25748;46.670;14.272;2023-02-01T07:52:07;-6.20;58.20
38333;DHT22;25748;46.670;14.272;2023-02-01T07:54:32;-6.10;58.40
38333;DHT22;25748;46.670;14.272;2023-02-01T07:56:58;-5.90;58.50
38333;DHT22;25748;46.670;14.272;2023-02-01T07:59:24;-5.70;58.60
38333;DHT22;25748;46.670;14.272;2023-02-01T08:01:52;-5.60;58.70
38333;DHT22;25748;46.670;14.272;2023-02-01T08:04:17;-5.30;58.80
38333;DHT22;25748;46.670;14.272;2023-02-01T08:06:43;-5.10;58.90
38333;DHT22;25748;46.670;14.272;2023-02-01T08:09:09;-4.90;58.90
38333;DHT22;25748;46.670;14.272;2023-02-01T08:11:36;-4.70;58.70
38333;DHT22;25748;46.670;14.272;2023-02-01T08:14:03;-4.50;58.70
38333;DHT22;25748;46.670;14.272;2023-02-01T08:16:29;-4.30;58.80
38333;DHT22;25748;46.670;14.272;2023-02-01T08:18:54;-4.00;58.80
38333;DHT22;25748;46.670;14.272;2023-02-01T08:21:26;-3.80;58.20
38333;DHT22;25748;46.670;14.272;2023-02-01T08:23:53;-3.60;58.00
38333;DHT22;25748;46.670;14.272;2023-02-01T08:26:23;-3.40;57.40
38333;DHT22;25748;46.670;14.272;2023-02-01T08:28:54;-3.30;57.00
38333;DHT22;25748;46.670;14.272;2023-02-01T08:31:21;-3.20;56.00
38333;DHT22;25748;46.670;14.272;2023-02-01T08:33:49;-3.20;55.30
38333;DHT22;25748;46.670;14.272;2023-02-01T08:36:16;-3.00;55.80
38333;DHT22;25748;46.670;14.272;2023-02-01T08:38:42;-2.90;55.60
38333;DHT22;25748;46.670;14.272;2023-02-01T08:41:10;-2.70;55.50
38333;DHT22;25748;46.670;14.272;2023-02-01T08:43:36;-2.60;55.30
38333;DHT22;25748;46.670;14.272;2023-02-01T08:46:03;-2.50;54.60
38333;DHT22;25748;46.670;14.272;2023-02-01T08:48:30;-2.40;54.20
38333;DHT22;25748;46.670;14.272;2023-02-01T08:50:55;-2.20;54.80
38333;DHT22;25748;46.670;14.272;2023-02-01T08:53:21;-2.00;54.70
38333;DHT22;25748;46.670;14.272;2023-02-01T08:55:47;-1.80;54.60
38333;DHT22;25748;46.670;14.272;2023-02-01T08:58:13;-1.70;54.20
38333;DHT22;25748;46.670;14.272;2023-02-01T09:00:40;-1.50;54.10
38333;DHT22;25748;46.670;14.272;2023-02-01T09:03:09;-1.30;54.10
38333;DHT22;25748;46.670;14.272;2023-02-01T09:05:35;-1.20;53.80
38333;DHT22;25748;46.670;14.272;2023-02-01T09:08:01;-1.00;53.30
38333;DHT22;25748;46.670;14.272;2023-02-01T09:10:26;-0.90;53.20
38333;DHT22;25748;46.670;14.272;2023-02-01T09:12:52;-0.70;53.40
38333;DHT22;25748;46.670;14.272;2023-02-01T09:15:18;-0.50;53.20
38333;DHT22;25748;46.670;14.272;2023-02-01T09:17:43;-0.40;52.90
38333;DHT22;25748;46.670;14.272;2023-02-01T09:20:09;-0.20;52.80
38333;DHT22;25748;46.670;14.272;2023-02-01T09:22:35;-0.10;52.60
38333;DHT22;25748;46.670;14.272;2023-02-01T09:25:01;0.00;51.50
38333;DHT22;25748;46.670;14.272;2023-02-01T09:27:27;0.00;51.20
38333;DHT22;25748;46.670;14.272;2023-02-01T09:29:52;0.10;51.40
38333;DHT22;25748;46.670;14.272;2023-02-01T09:32:22;0.30;51.40
38333;DHT22;25748;46.670;14.272;2023-02-01T09:34:48;0.40;51.00
38333;DHT22;25748;46.670;14.272;2023-02-01T09:37:14;0.60;51.10
38333;DHT22;25748;46.670;14.272;2023-02-01T09:39:40;0.70;50.60
38333;DHT22;25748;46.670;14.272;2023-02-01T09:47:57;1.00;50.10
38333;DHT22;25748;46.670;14.272;2023-02-01T09:50:33;1.10;49.70
38333;DHT22;25748;46.670;14.272;2023-02-01T09:56:06;1.30;49.70
38333;DHT22;25748;46.670;14.272;2023-02-01T10:01:00;1.70;49.80
38333;DHT22;25748;46.670;14.272;2023-02-01T10:03:34;1.90;49.60
38333;DHT22;25748;46.670;14.272;2023-02-01T10:06:21;2.00;49.40
38333;DHT22;25748;46.670;14.272;2023-02-01T10:09:14;2.20;49.50
38333;DHT22;25748;46.670;14.272;2023-02-01T10:17:29;2.70;48.90
38333;DHT22;25748;46.670;14.272;2023-02-01T10:25:56;3.20;48.40
38333;DHT22;25748;46.670;14.272;2023-02-01T10:28:25;3.30;47.50
38333;DHT22;25748;46.670;14.272;2023-02-01T10:30:56;3.40;47.90
38333;DHT22;25748;46.670;14.272;2023-02-01T10:36:23;3.70;47.60
38333;DHT22;25748;46.670;14.272;2023-02-01T10:38:47;3.70;46.60
38333;DHT22;25748;46.670;14.272;2023-02-01T10:41:35;3.90;46.90
38333;DHT22;25748;46.670;14.272;2023-02-01T10:44:03;4.00;46.60
38333;DHT22;25748;46.670;14.272;2023-02-01T10:46:33;4.20;46.30
38333;DHT22;25748;46.670;14.272;2023-02-01T10:49:03;4.30;46.00
38333;DHT22;25748;46.670;14.272;2023-02-01T10:53:58;4.40;45.50
38333;DHT22;25748;46.670;14.272;2023-02-01T10:56:29;4.30;45.30
38333;DHT22;25748;46.670;14.272;2023-02-01T10:59:06;4.30;45.60
38333;DHT22;25748;46.670;14.272;2023-02-01T11:01:39;4.50;45.60
38333;DHT22;25748;46.670;14.272;2023-02-01T11:06:40;4.70;45.00
38333;DHT22;25748;46.670;14.272;2023-02-01T11:14:20;4.80;44.50
38333;DHT22;25748;46.670;14.272;2023-02-01T11:17:26;5.00;45.30
38333;DHT22;25748;46.670;14.272;2023-02-01T11:19:56;5.20;45.10
38333;DHT22;25748;46.670;14.272;2023-02-01T11:22:22;5.30;44.50
38333;DHT22;25748;46.670;14.272;2023-02-01T11:24:49;5.60;45.00
38333;DHT22;25748;46.670;14.272;2023-02-01T11:27:18;5.70;44.60
38333;DHT22;25748;46.670;14.272;2023-02-01T11:29:48;5.90;44.20
38333;DHT22;25748;46.670;14.272;2023-02-01T11:32:17;6.00;44.30
38333;DHT22;25748;46.670;14.272;2023-02-01T11:34:47;6.20;44.20
38333;DHT22;25748;46.670;14.272;2023-02-01T11:37:22;6.30;44.20
38333;DHT22;25748;46.670;14.272;2023-02-01T11:39:56;6.40;43.70
38333;DHT22;25748;46.670;14.272;2023-02-01T11:42:22;6.50;43.30
38333;DHT22;25748;46.670;14.272;2023-02-01T11:44:48;6.60;42.90
38333;DHT22;25748;46.670;14.272;2023-02-01T11:47:26;6.70;42.90
38333;DHT22;25748;46.670;14.272;2023-02-01T11:49:54;6.70;42.50
38333;DHT22;25748;46.670;14.272;2023-02-01T12:06:08;7.10;42.60
38333;DHT22;25748;46.670;14.272;2023-02-01T12:22:22;7.50;41.80
38333;DHT22;25748;46.670;14.272;2023-02-01T12:28:06;7.70;41.60
38333;DHT22;25748;46.670;14.272;2023-02-01T12:38:36;7.90;41.50
38333;DHT22;25748;46.670;14.272;2023-02-01T12:46:23;8.00;41.00
38333;DHT22;25748;46.670;14.272;2023-02-01T12:49:02;8.10;41.50
38333;DHT22;25748;46.670;14.272;2023-02-01T12:51:37;8.30;41.20
38333;DHT22;25748;46.670;14.272;2023-02-01T12:54:23;8.40;41.30
38333;DHT22;25748;46.670;14.272;2023-02-01T12:56:53;8.40;41.00
38333;DHT22;25748;46.670;14.272;2023-02-01T13:01:59;8.50;41.10
38333;DHT22;25748;46.670;14.272;2023-02-01T13:04:32;8.60;40.90
38333;DHT22;25748;46.670;14.272;2023-02-01T13:07:38;8.60;40.80
38333;DHT22;25748;46.670;14.272;2023-02-01T13:10:23;8.70;41.00
38333;DHT22;25748;46.670;14.272;2023-02-01T13:18:21;8.60;40.80
38333;DHT22;25748;46.670;14.272;2023-02-01T13:23:29;8.60;40.70
38333;DHT22;25748;46.670;14.272;2023-02-01T13:25:56;8.60;40.60
38333;DHT22;25748;46.670;14.272;2023-02-01T13:31:54;8.40;40.80
38333;DHT22;25748;46.670;14.272;2023-02-01T13:40:30;8.60;40.50
38333;DHT22;25748;46.670;14.272;2023-02-01T13:45:46;8.40;40.20
38333;DHT22;25748;46.670;14.272;2023-02-01T13:48:50;8.40;40.00
38333;DHT22;25748;46.670;14.272;2023-02-01T13:54:06;8.40;40.40
38333;DHT22;25748;46.670;14.272;2023-02-01T13:56:43;8.50;40.40
38333;DHT22;25748;46.670;14.272;2023-02-01T14:05:10;8.70;39.90
38333;DHT22;25748;46.670;14.272;2023-02-01T14:07:36;8.70;40.30
38333;DHT22;25748;46.670;14.272;2023-02-01T14:13:13;8.60;39.90
38333;DHT22;25748;46.670;14.272;2023-02-01T14:16:15;8.60;40.10
38333;DHT22;25748;46.670;14.272;2023-02-01T14:21:18;8.60;40.30
38333;DHT22;25748;46.670;14.272;2023-02-01T14:23:56;8.70;40.60
38333;DHT22;25748;46.670;14.272;2023-02-01T15:06:42;8.00;40.50
38333;DHT22;25748;46.670;14.272;2023-02-01T15:09:20;8.00;40.60
38333;DHT22;25748;46.670;14.272;2023-02-01T15:14:38;7.70;41.10
38333;DHT22;25748;46.670;14.272;2023-02-01T15:17:25;7.50;41.40
38333;DHT22;25748;46.670;14.272;2023-02-01T15:19:59;7.30;41.50
38333;DHT22;25748;46.670;14.272;2023-02-01T15:22:27;7.20;41.70
38333;DHT22;25748;46.670;14.272;2023-02-01T15:24:57;7.00;41.70
38333;DHT22;25748;46.670;14.272;2023-02-01T15:27:23;6.80;41.80
38333;DHT22;25748;46.670;14.272;2023-02-01T15:29:49;6.60;42.00
38333;DHT22;25748;46.670;14.272;2023-02-01T15:34:55;6.20;42.60
38333;DHT22;25748;46.670;14.272;2023-02-01T15:37:21;6.00;42.70
38333;DHT22;25748;46.670;14.272;2023-02-01T15:42:40;5.40;43.20
38333;DHT22;25748;46.670;14.272;2023-02-01T15:45:20;5.20;43.60
38333;DHT22;25748;46.670;14.272;2023-02-01T15:47:51;4.90;43.90
38333;DHT22;25748;46.670;14.272;2023-02-01T15:50:19;4.70;44.10
38333;DHT22;25748;46.670;14.272;2023-02-01T15:52:48;4.40;44.40
38333;DHT22;25748;46.670;14.272;2023-02-01T15:57:49;3.90;45.20
38333;DHT22;25748;46.670;14.272;2023-02-01T16:00:27;3.70;45.40
38333;DHT22;25748;46.670;14.272;2023-02-01T16:03:15;3.50;45.80
38333;DHT22;25748;46.670;14.272;2023-02-01T16:06:00;3.40;45.90
38333;DHT22;25748;46.670;14.272;2023-02-01T16:08:35;3.30;46.30
38333;DHT22;25748;46.670;14.272;2023-02-01T16:13:33;2.90;46.80
38333;DHT22;25748;46.670;14.272;2023-02-01T16:15:59;2.80;47.00
38333;DHT22;25748;46.670;14.272;2023-02-01T16:18:25;2.70;47.10
38333;DHT22;25748;46.670;14.272;2023-02-01T16:20:51;2.60;47.30
38333;DHT22;25748;46.670;14.272;2023-02-01T16:23:16;2.50;47.50
38333;DHT22;25748;46.670;14.272;2023-02-01T16:25:42;2.30;47.40
38333;DHT22;25748;46.670;14.272;2023-02-01T16:28:08;2.20;47.70
38333;DHT22;25748;46.670;14.272;2023-02-01T16:30:34;2.10;47.80
38333;DHT22;25748;46.670;14.272;2023-02-01T16:33:01;1.90;47.80
38333;DHT22;25748;46.670;14.272;2023-02-01T16:35:34;1.80;47.90
38333;DHT22;25748;46.670;14.272;2023-02-01T16:38:03;1.70;48.20
38333;DHT22;25748;46.670;14.272;2023-02-01T16:40:34;1.60;48.60
38333;DHT22;25748;46.670;14.272;2023-02-01T16:42:59;1.40;48.70
38333;DHT22;25748;46.670;14.272;2023-02-01T16:45:25;1.30;48.90
38333;DHT22;25748;46.670;14.272;2023-02-01T16:47:54;1.30;49.10
38333;DHT22;25748;46.670;14.272;2023-02-01T16:50:22;1.10;49.30
38333;DHT22;25748;46.670;14.272;2023-02-01T16:52:49;1.10;50.20
38333;DHT22;25748;46.670;14.272;2023-02-01T16:55:19;1.00;50.60
38333;DHT22;25748;46.670;14.272;2023-02-01T16:57:56;1.00;50.60
38333;DHT22;25748;46.670;14.272;2023-02-01T17:00:29;1.00;50.60
38333;DHT22;25748;46.670;14.272;2023-02-01T17:03:03;0.90;50.80
38333;DHT22;25748;46.670;14.272;2023-02-01T17:05:34;1.00;50.60
38333;DHT22;25748;46.670;14.272;2023-02-01T17:08:40;0.90;50.80
38333;DHT22;25748;46.670;14.272;2023-02-01T17:11:23;0.90;50.80
38333;DHT22;25748;46.670;14.272;2023-02-01T17:17:00;0.80;50.70
38333;DHT22;25748;46.670;14.272;2023-02-01T17:19:32;0.70;50.60
38333;DHT22;25748;46.670;14.272;2023-02-01T17:22:00;0.60;50.60
38333;DHT22;25748;46.670;14.272;2023-02-01T17:24:35;0.60;50.70
38333;DHT22;25748;46.670;14.272;2023-02-01T17:27:05;0.50;50.70
38333;DHT22;25748;46.670;14.272;2023-02-01T17:29:34;0.40;50.90
38333;DHT22;25748;46.670;14.272;2023-02-01T17:32:04;0.40;50.90
38333;DHT22;25748;46.670;14.272;2023-02-01T17:34:31;0.30;50.90
38333;DHT22;25748;46.670;14.272;2023-02-01T17:36:56;0.30;51.00
38333;DHT22;25748;46.670;14.272;2023-02-01T17:39:23;0.20;50.90
38333;DHT22;25748;46.670;14.272;2023-02-01T17:42:11;0.10;51.30
38333;DHT22;25748;46.670;14.272;2023-02-01T17:44:38;0.00;51.90
38333;DHT22;25748;46.670;14.272;2023-02-01T17:47:03;-0.10;52.70
38333;DHT22;25748;46.670;14.272;2023-02-01T17:49:29;-0.10;52.80
38333;DHT22;25748;46.670;14.272;2023-02-01T17:51:56;-0.10;52.40
38333;DHT22;25748;46.670;14.272;2023-02-01T17:54:22;-0.20;52.30
38333;DHT22;25748;46.670;14.272;2023-02-01T17:56:50;-0.20;52.40
38333;DHT22;25748;46.670;14.272;2023-02-01T17:59:17;-0.20;52.40
38333;DHT22;25748;46.670;14.272;2023-02-01T18:01:42;-0.20;52.40
38333;DHT22;25748;46.670;14.272;2023-02-01T18:04:12;-0.20;52.40
38333;DHT22;25748;46.670;14.272;2023-02-01T18:06:40;-0.20;52.20
38333;DHT22;25748;46.670;14.272;2023-02-01T18:09:06;-0.20;52.20
38333;DHT22;25748;46.670;14.272;2023-02-01T18:11:32;-0.20;52.60
38333;DHT22;25748;46.670;14.272;2023-02-01T18:13:58;-0.30;52.70
38333;DHT22;25748;46.670;14.272;2023-02-01T18:16:32;-0.30;53.00
38333;DHT22;25748;46.670;14.272;2023-02-01T18:18:58;-0.30;53.10
38333;DHT22;25748;46.670;14.272;2023-02-01T18:21:33;-0.30;52.90
38333;DHT22;25748;46.670;14.272;2023-02-01T18:24:02;-0.30;52.80
38333;DHT22;25748;46.670;14.272;2023-02-01T18:26:28;-0.30;53.00
38333;DHT22;25748;46.670;14.272;2023-02-01T18:28:54;-0.40;53.30
38333;DHT22;25748;46.670;14.272;2023-02-01T18:31:26;-0.30;53.30
38333;DHT22;25748;46.670;14.272;2023-02-01T18:33:55;-0.30;53.20
38333;DHT22;25748;46.670;14.272;2023-02-01T18:36:21;-0.30;53.20
38333;DHT22;25748;46.670;14.272;2023-02-01T18:38:47;-0.30;53.20
38333;DHT22;25748;46.670;14.272;2023-02-01T18:41:20;-0.40;53.20
38333;DHT22;25748;46.670;14.272;2023-02-01T18:43:46;-0.30;53.30
38333;DHT22;25748;46.670;14.272;2023-02-01T18:46:12;-0.40;53.30
38333;DHT22;25748;46.670;14.272;2023-02-01T18:48:40;-0.40;53.30
38333;DHT22;25748;46.670;14.272;2023-02-01T18:51:16;-0.40;53.40
38333;DHT22;25748;46.670;14.272;2023-02-01T18:53:44;-0.40;53.50
38333;DHT22;25748;46.670;14.272;2023-02-01T18:56:12;-0.40;53.50